sensor_id;sensor_type;location;lat;lon;timestamp;P1;durP1;ratioP1;P2;durP2;ratioP2
61038;SDS011;46919;45.816;3.104;2023-03-14T00:00:05;6.40;;;1.15;;
61038;SDS011;46919;45.816;3.104;2023-03-14T00:02:33;5.32;;;0.60;;
61038;SDS011;46919;45.816;3.104;2023-03-14T00:04:59;3.42;;;0.55;;
61038;SDS011;46919;45.816;3.104;2023-03-14T00:07:24;6.32;;;1.08;;
61038;SDS011;46919;45.816;3.104;2023-03-14T00:09:50;2.90;;;0.68;;
61038;SDS011;46919;45.816;3.104;2023-03-14T00:12:15;5.35;;;1.00;;
61038;SDS011;46919;45.816;3.104;2023-03-14T00:14:41;3.58;;;0.82;;
61038;SDS011;46919;45.816;3.104;2023-03-14T00:17:07;3.17;;;0.50;;
61038;SDS011;46919;45.816;3.104;2023-03-14T00:19:33;4.03;;;0.47;;
61038;SDS011;46919;45.816;3.104;2023-03-14T00:21:58;3.53;;;0.70;;
61038;SDS011;46919;45.816;3.104;2023-03-14T00:24:23;5.28;;;0.70;;
61038;SDS011;46919;45.816;3.104;2023-03-14T00:26:49;6.05;;;1.08;;
61038;SDS011;46919;45.816;3.104;2023-03-14T00:29:14;4.13;;;0.65;;
61038;SDS011;46919;45.816;3.104;2023-03-14T00:31:40;2.72;;;0.60;;
61038;SDS011;46919;45.816;3.104;2023-03-14T00:34:05;6.40;;;0.75;;
61038;SDS011;46919;45.816;3.104;2023-03-14T00:36:31;3.95;;;1.00;;
61038;SDS011;46919;45.816;3.104;2023-03-14T00:38:56;3.67;;;0.70;;
61038;SDS011;46919;45.816;3.104;2023-03-14T00:41:22;6.10;;;0.90;;
61038;SDS011;46919;45.816;3.104;2023-03-14T00:43:48;4.80;;;0.80;;
61038;SDS011;46919;45.816;3.104;2023-03-14T00:46:14;3.55;;;0.80;;
61038;SDS011;46919;45.816;3.104;2023-03-14T00:48:40;4.53;;;0.98;;
61038;SDS011;46919;45.816;3.104;2023-03-14T00:51:06;3.38;;;0.60;;
61038;SDS011;46919;45.816;3.104;2023-03-14T00:53:36;3.47;;;1.08;;
61038;SDS011;46919;45.816;3.104;2023-03-14T00:56:04;6.53;;;0.80;;
61038;SDS011;46919;45.816;3.104;2023-03-14T00:58:34;5.75;;;0.75;;
61038;SDS011;46919;45.816;3.104;2023-03-14T01:01:02;1.67;;;0.60;;
61038;SDS011;46919;45.816;3.104;2023-03-14T01:03:32;1.25;;;0.30;;
61038;SDS011;46919;45.816;3.104;2023-03-14T01:06:12;2.03;;;0.32;;
61038;SDS011;46919;45.816;3.104;2023-03-14T01:08:42;1.67;;;0.35;;
61038;SDS011;46919;45.816;3.104;2023-03-14T01:11:09;2.58;;;0.68;;
61038;SDS011;46919;45.816;3.104;2023-03-14T01:13:38;0.82;;;0.40;;
61038;SDS011;46919;45.816;3.104;2023-03-14T01:16:04;4.97;;;0.75;;
61038;SDS011;46919;45.816;3.104;2023-03-14T01:18:31;6.53;;;0.90;;
61038;SDS011;46919;45.816;3.104;2023-03-14T01:20:58;8.77;;;1.40;;
61038;SDS011;46919;45.816;3.104;2023-03-14T01:23:23;8.52;;;1.20;;
61038;SDS011;46919;45.816;3.104;2023-03-14T01:25:49;10.43;;;1.60;;
61038;SDS011;46919;45.816;3.104;2023-03-14T01:28:14;8.55;;;1.38;;
61038;SDS011;46919;45.816;3.104;2023-03-14T01:30:40;7.00;;;1.25;;
61038;SDS011;46919;45.816;3.104;2023-03-14T01:33:06;10.23;;;1.20;;
61038;SDS011;46919;45.816;3.104;2023-03-14T01:35:31;7.18;;;1.23;;
61038;SDS011;46919;45.816;3.104;2023-03-14T01:37:57;5.63;;;1.05;;
61038;SDS011;46919;45.816;3.104;2023-03-14T01:40:22;3.83;;;0.90;;
61038;SDS011;46919;45.816;3.104;2023-03-14T01:42:57;7.40;;;1.10;;
61038;SDS011;46919;45.816;3.104;2023-03-14T01:50:58;7.78;;;1.45;;
61038;SDS011;46919;45.816;3.104;2023-03-14T01:53:25;4.60;;;0.88;;
61038;SDS011;46919;45.816;3.104;2023-03-14T01:55:50;2.97;;;0.70;;
61038;SDS011;46919;45.816;3.104;2023-03-14T01:58:18;4.50;;;0.98;;
61038;SDS011;46919;45.816;3.104;2023-03-14T02:00:45;6.55;;;1.00;;
61038;SDS011;46919;45.816;3.104;2023-03-14T02:03:12;3.65;;;0.60;;
61038;SDS011;46919;45.816;3.104;2023-03-14T02:05:41;5.80;;;1.30;;
61038;SDS011;46919;45.816;3.104;2023-03-14T02:08:12;1.77;;;0.57;;
61038;SDS011;46919;45.816;3.104;2023-03-14T02:10:41;3.05;;;0.60;;
61038;SDS011;46919;45.816;3.104;2023-03-14T02:13:09;2.35;;;0.73;;
61038;SDS011;46919;45.816;3.104;2023-03-14T02:15:35;3.83;;;0.80;;
61038;SDS011;46919;45.816;3.104;2023-03-14T02:18:02;2.47;;;0.57;;
61038;SDS011;46919;45.816;3.104;2023-03-14T02:20:45;7.10;;;0.75;;
61038;SDS011;46919;45.816;3.104;2023-03-14T02:23:17;1.95;;;0.30;;
61038;SDS011;46919;45.816;3.104;2023-03-14T02:26:00;2.30;;;0.50;;
61038;SDS011;46919;45.816;3.104;2023-03-14T02:28:34;1.42;;;0.50;;
61038;SDS011;46919;45.816;3.104;2023-03-14T02:30:59;3.72;;;0.50;;
61038;SDS011;46919;45.816;3.104;2023-03-14T02:33:25;0.82;;;0.20;;
61038;SDS011;46919;45.816;3.104;2023-03-14T02:35:53;0.77;;;0.20;;
61038;SDS011;46919;45.816;3.104;2023-03-14T02:38:27;2.63;;;0.45;;
61038;SDS011;46919;45.816;3.104;2023-03-14T02:41:08;1.15;;;0.38;;
61038;SDS011;46919;45.816;3.104;2023-03-14T02:43:33;0.82;;;0.10;;
61038;SDS011;46919;45.816;3.104;2023-03-14T02:45:59;2.13;;;0.32;;
61038;SDS011;46919;45.816;3.104;2023-03-14T02:48:37;1.05;;;0.47;;
61038;SDS011;46919;45.816;3.104;2023-03-14T02:51:08;1.38;;;0.20;;
61038;SDS011;46919;45.816;3.104;2023-03-14T02:53:34;2.05;;;0.38;;
61038;SDS011;46919;45.816;3.104;2023-03-14T02:56:02;0.85;;;0.10;;
61038;SDS011;46919;45.816;3.104;2023-03-14T02:58:28;0.45;;;0.10;;
61038;SDS011;46919;45.816;3.104;2023-03-14T03:00:54;1.40;;;0.35;;
61038;SDS011;46919;45.816;3.104;2023-03-14T03:03:19;1.23;;;0.15;;
61038;SDS011;46919;45.816;3.104;2023-03-14T03:05:49;0.20;;;0.10;;
61038;SDS011;46919;45.816;3.104;2023-03-14T03:08:15;1.75;;;0.30;;
61038;SDS011;46919;45.816;3.104;2023-03-14T03:10:41;1.90;;;0.20;;
61038;SDS011;46919;45.816;3.104;2023-03-14T03:13:07;0.80;;;0.17;;
61038;SDS011;46919;45.816;3.104;2023-03-14T03:15:32;0.17;;;0.10;;
61038;SDS011;46919;45.816;3.104;2023-03-14T03:17:57;0.50;;;0.30;;
61038;SDS011;46919;45.816;3.104;2023-03-14T03:20:23;0.20;;;0.10;;
61038;SDS011;46919;45.816;3.104;2023-03-14T03:22:48;0.57;;;0.00;;
61038;SDS011;46919;45.816;3.104;2023-03-14T03:25:15;1.65;;;0.10;;
61038;SDS011;46919;45.816;3.104;2023-03-14T03:27:40;0.05;;;0.00;;
61038;SDS011;46919;45.816;3.104;2023-03-14T03:30:07;0.30;;;0.00;;
61038;SDS011;46919;45.816;3.104;2023-03-14T03:32:33;1.20;;;0.10;;
61038;SDS011;46919;45.816;3.104;2023-03-14T03:34:59;0.00;;;0.00;;
61038;SDS011;46919;45.816;3.104;2023-03-14T03:37:24;0.75;;;0.10;;
61038;SDS011;46919;45.816;3.104;2023-03-14T03:39:50;0.63;;;0.00;;
61038;SDS011;46919;45.816;3.104;2023-03-14T03:42:17;0.00;;;0.00;;
61038;SDS011;46919;45.816;3.104;2023-03-14T03:44:42;0.57;;;0.03;;
61038;SDS011;46919;45.816;3.104;2023-03-14T03:47:08;0.20;;;0.00;;
61038;SDS011;46919;45.816;3.104;2023-03-14T03:49:33;1.85;;;0.10;;
61038;SDS011;46919;45.816;3.104;2023-03-14T03:51:59;0.28;;;0.10;;
61038;SDS011;46919;45.816;3.104;2023-03-14T03:54:24;0.00;;;0.00;;
61038;SDS011;46919;45.816;3.104;2023-03-14T03:56:50;0.15;;;0.03;;
61038;SDS011;46919;45.816;3.104;2023-03-14T03:59:16;0.00;;;0.00;;
61038;SDS011;46919;45.816;3.104;2023-03-14T04:01:41;0.00;;;0.00;;
61038;SDS011;46919;45.816;3.104;2023-03-14T04:04:07;0.20;;;0.10;;
61038;SDS011;46919;45.816;3.104;2023-03-14T04:06:32;0.35;;;0.00;;
61038;SDS011;46919;45.816;3.104;2023-03-14T04:08:58;0.47;;;0.10;;
61038;SDS011;46919;45.816;3.104;2023-03-14T04:11:23;0.00;;;0.00;;
61038;SDS011;46919;45.816;3.104;2023-03-14T04:13:49;1.75;;;0.00;;
61038;SDS011;46919;45.816;3.104;2023-03-14T04:16:15;0.03;;;0.00;;
61038;SDS011;46919;45.816;3.104;2023-03-14T04:18:43;0.08;;;0.00;;
61038;SDS011;46919;45.816;3.104;2023-03-14T04:21:08;0.10;;;0.00;;
61038;SDS011;46919;45.816;3.104;2023-03-14T04:23:34;0.00;;;0.00;;
61038;SDS011;46919;45.816;3.104;2023-03-14T04:25:59;0.00;;;0.00;;
61038;SDS011;46919;45.816;3.104;2023-03-14T04:28:25;0.00;;;0.00;;
61038;SDS011;46919;45.816;3.104;2023-03-14T04:30:50;0.00;;;0.00;;
61038;SDS011;46919;45.816;3.104;2023-03-14T04:33:16;0.10;;;0.00;;
61038;SDS011;46919;45.816;3.104;2023-03-14T04:35:45;0.00;;;0.00;;
61038;SDS011;46919;45.816;3.104;2023-03-14T04:38:11;0.05;;;0.00;;
61038;SDS011;46919;45.816;3.104;2023-03-14T04:40:37;0.00;;;0.00;;
61038;SDS011;46919;45.816;3.104;2023-03-14T04:43:03;0.00;;;0.00;;
61038;SDS011;46919;45.816;3.104;2023-03-14T04:45:29;0.00;;;0.00;;
61038;SDS011;46919;45.816;3.104;2023-03-14T04:47:54;0.00;;;0.00;;
61038;SDS011;46919;45.816;3.104;2023-03-14T04:50:20;0.00;;;0.00;;
61038;SDS011;46919;45.816;3.104;2023-03-14T04:52:45;1.45;;;0.00;;
61038;SDS011;46919;45.816;3.104;2023-03-14T04:55:10;0.00;;;0.00;;
61038;SDS011;46919;45.816;3.104;2023-03-14T04:57:36;0.65;;;0.10;;
61038;SDS011;46919;45.816;3.104;2023-03-14T05:00:02;0.10;;;0.00;;
61038;SDS011;46919;45.816;3.104;2023-03-14T05:02:31;0.00;;;0.00;;
61038;SDS011;46919;45.816;3.104;2023-03-14T05:04:57;4.85;;;0.13;;
61038;SDS011;46919;45.816;3.104;2023-03-14T05:07:22;0.32;;;0.03;;
61038;SDS011;46919;45.816;3.104;2023-03-14T05:09:48;0.00;;;0.00;;
61038;SDS011;46919;45.816;3.104;2023-03-14T05:12:13;0.00;;;0.00;;
61038;SDS011;46919;45.816;3.104;2023-03-14T05:14:39;0.00;;;0.00;;
61038;SDS011;46919;45.816;3.104;2023-03-14T05:17:04;0.00;;;0.00;;
61038;SDS011;46919;45.816;3.104;2023-03-14T05:19:30;0.63;;;0.00;;
61038;SDS011;46919;45.816;3.104;2023-03-14T05:21:55;0.05;;;0.00;;
61038;SDS011;46919;45.816;3.104;2023-03-14T05:24:21;0.00;;;0.00;;
61038;SDS011;46919;45.816;3.104;2023-03-14T05:26:46;0.00;;;0.00;;
61038;SDS011;46919;45.816;3.104;2023-03-14T05:29:11;0.38;;;0.10;;
61038;SDS011;46919;45.816;3.104;2023-03-14T05:31:37;0.10;;;0.00;;
61038;SDS011;46919;45.816;3.104;2023-03-14T05:34:02;1.88;;;0.13;;
61038;SDS011;46919;45.816;3.104;2023-03-14T05:36:28;0.43;;;0.00;;
61038;SDS011;46919;45.816;3.104;2023-03-14T05:38:53;0.00;;;0.00;;
61038;SDS011;46919;45.816;3.104;2023-03-14T05:41:19;0.08;;;0.00;;
61038;SDS011;46919;45.816;3.104;2023-03-14T05:43:44;0.55;;;0.00;;
61038;SDS011;46919;45.816;3.104;2023-03-14T05:46:09;0.00;;;0.00;;
61038;SDS011;46919;45.816;3.104;2023-03-14T05:48:35;0.17;;;0.10;;
61038;SDS011;46919;45.816;3.104;2023-03-14T05:51:00;0.45;;;0.10;;
61038;SDS011;46919;45.816;3.104;2023-03-14T05:53:26;1.25;;;0.03;;
61038;SDS011;46919;45.816;3.104;2023-03-14T05:55:52;0.20;;;0.10;;
61038;SDS011;46919;45.816;3.104;2023-03-14T05:58:18;0.35;;;0.10;;
61038;SDS011;46919;45.816;3.104;2023-03-14T06:00:43;0.22;;;0.00;;
61038;SDS011;46919;45.816;3.104;2023-03-14T06:03:09;0.10;;;0.00;;
61038;SDS011;46919;45.816;3.104;2023-03-14T06:05:34;1.17;;;0.17;;
61038;SDS011;46919;45.816;3.104;2023-03-14T06:07:59;0.85;;;0.30;;
61038;SDS011;46919;45.816;3.104;2023-03-14T06:10:25;1.98;;;0.20;;
61038;SDS011;46919;45.816;3.104;2023-03-14T06:12:50;0.50;;;0.15;;
61038;SDS011;46919;45.816;3.104;2023-03-14T06:15:16;0.47;;;0.20;;
61038;SDS011;46919;45.816;3.104;2023-03-14T06:17:41;0.93;;;0.20;;
61038;SDS011;46919;45.816;3.104;2023-03-14T06:20:07;1.70;;;0.10;;
61038;SDS011;46919;45.816;3.104;2023-03-14T06:22:33;0.00;;;0.00;;
61038;SDS011;46919;45.816;3.104;2023-03-14T06:24:59;0.75;;;0.10;;
61038;SDS011;46919;45.816;3.104;2023-03-14T06:27:24;0.63;;;0.10;;
61038;SDS011;46919;45.816;3.104;2023-03-14T06:29:49;1.25;;;0.17;;
61038;SDS011;46919;45.816;3.104;2023-03-14T06:32:15;0.63;;;0.10;;
61038;SDS011;46919;45.816;3.104;2023-03-14T06:34:40;1.00;;;0.28;;
61038;SDS011;46919;45.816;3.104;2023-03-14T06:37:06;1.38;;;0.32;;
61038;SDS011;46919;45.816;3.104;2023-03-14T06:39:31;2.33;;;0.57;;
61038;SDS011;46919;45.816;3.104;2023-03-14T06:41:57;2.63;;;0.28;;
61038;SDS011;46919;45.816;3.104;2023-03-14T06:44:22;1.67;;;0.60;;
61038;SDS011;46919;45.816;3.104;2023-03-14T06:46:48;1.73;;;0.60;;
61038;SDS011;46919;45.816;3.104;2023-03-14T06:49:13;3.33;;;1.20;;
61038;SDS011;46919;45.816;3.104;2023-03-14T06:51:39;3.40;;;1.00;;
61038;SDS011;46919;45.816;3.104;2023-03-14T06:54:04;2.50;;;0.32;;
61038;SDS011;46919;45.816;3.104;2023-03-14T06:56:30;3.92;;;0.40;;
61038;SDS011;46919;45.816;3.104;2023-03-14T06:58:55;2.15;;;0.32;;
61038;SDS011;46919;45.816;3.104;2023-03-14T07:01:25;3.92;;;0.40;;
61038;SDS011;46919;45.816;3.104;2023-03-14T07:03:52;2.63;;;0.45;;
61038;SDS011;46919;45.816;3.104;2023-03-14T07:06:18;3.90;;;0.60;;
61038;SDS011;46919;45.816;3.104;2023-03-14T07:08:44;2.38;;;0.50;;
61038;SDS011;46919;45.816;3.104;2023-03-14T07:11:09;2.13;;;0.47;;
61038;SDS011;46919;45.816;3.104;2023-03-14T07:13:37;5.20;;;0.70;;
61038;SDS011;46919;45.816;3.104;2023-03-14T07:16:03;2.50;;;0.50;;
61038;SDS011;46919;45.816;3.104;2023-03-14T07:18:29;4.13;;;1.00;;
61038;SDS011;46919;45.816;3.104;2023-03-14T07:20:54;5.22;;;0.80;;
61038;SDS011;46919;45.816;3.104;2023-03-14T07:23:19;6.65;;;0.85;;
61038;SDS011;46919;45.816;3.104;2023-03-14T07:25:45;3.85;;;0.80;;
61038;SDS011;46919;45.816;3.104;2023-03-14T07:28:10;3.58;;;1.05;;
61038;SDS011;46919;45.816;3.104;2023-03-14T07:30:36;5.65;;;0.90;;
61038;SDS011;46919;45.816;3.104;2023-03-14T07:33:01;8.70;;;1.15;;
61038;SDS011;46919;45.816;3.104;2023-03-14T07:35:26;7.55;;;1.40;;
61038;SDS011;46919;45.816;3.104;2023-03-14T07:37:52;7.25;;;1.33;;
61038;SDS011;46919;45.816;3.104;2023-03-14T07:40:17;9.52;;;1.42;;
61038;SDS011;46919;45.816;3.104;2023-03-14T07:42:44;9.15;;;1.38;;
61038;SDS011;46919;45.816;3.104;2023-03-14T07:45:09;10.02;;;1.67;;
61038;SDS011;46919;45.816;3.104;2023-03-14T07:47:36;9.60;;;1.40;;
61038;SDS011;46919;45.816;3.104;2023-03-14T07:50:02;9.02;;;1.58;;
61038;SDS011;46919;45.816;3.104;2023-03-14T07:52:28;6.07;;;1.30;;
61038;SDS011;46919;45.816;3.104;2023-03-14T07:54:54;9.75;;;2.67;;
61038;SDS011;46919;45.816;3.104;2023-03-14T07:57:19;9.48;;;2.85;;
61038;SDS011;46919;45.816;3.104;2023-03-14T07:59:45;9.57;;;1.92;;
61038;SDS011;46919;45.816;3.104;2023-03-14T08:02:11;6.10;;;1.75;;
61038;SDS011;46919;45.816;3.104;2023-03-14T08:04:38;11.10;;;1.60;;
61038;SDS011;46919;45.816;3.104;2023-03-14T08:07:04;7.85;;;1.33;;
61038;SDS011;46919;45.816;3.104;2023-03-14T08:09:29;8.60;;;1.38;;
61038;SDS011;46919;45.816;3.104;2023-03-14T08:11:55;9.23;;;1.50;;
61038;SDS011;46919;45.816;3.104;2023-03-14T08:14:20;12.20;;;2.20;;
61038;SDS011;46919;45.816;3.104;2023-03-14T08:16:48;13.10;;;1.95;;
61038;SDS011;46919;45.816;3.104;2023-03-14T08:19:14;9.75;;;1.63;;
61038;SDS011;46919;45.816;3.104;2023-03-14T08:21:40;14.13;;;2.63;;
61038;SDS011;46919;45.816;3.104;2023-03-14T08:24:05;5.75;;;1.50;;
61038;SDS011;46919;45.816;3.104;2023-03-14T08:26:31;11.30;;;1.90;;
61038;SDS011;46919;45.816;3.104;2023-03-14T08:28:56;10.18;;;1.80;;
61038;SDS011;46919;45.816;3.104;2023-03-14T08:31:22;10.18;;;1.63;;
61038;SDS011;46919;45.816;3.104;2023-03-14T08:33:47;10.25;;;2.30;;
61038;SDS011;46919;45.816;3.104;2023-03-14T08:36:13;7.63;;;1.48;;
61038;SDS011;46919;45.816;3.104;2023-03-14T08:38:38;11.70;;;1.58;;
61038;SDS011;46919;45.816;3.104;2023-03-14T08:41:03;11.60;;;1.70;;
61038;SDS011;46919;45.816;3.104;2023-03-14T08:43:29;8.15;;;1.60;;
61038;SDS011;46919;45.816;3.104;2023-03-14T08:45:58;8.73;;;1.80;;
61038;SDS011;46919;45.816;3.104;2023-03-14T08:48:24;6.18;;;1.55;;
61038;SDS011;46919;45.816;3.104;2023-03-14T08:50:50;13.40;;;1.80;;
61038;SDS011;46919;45.816;3.104;2023-03-14T08:53:15;8.75;;;1.30;;
61038;SDS011;46919;45.816;3.104;2023-03-14T08:55:41;13.00;;;1.98;;
61038;SDS011;46919;45.816;3.104;2023-03-14T08:58:06;5.60;;;1.20;;
61038;SDS011;46919;45.816;3.104;2023-03-14T09:00:31;7.10;;;1.63;;
61038;SDS011;46919;45.816;3.104;2023-03-14T09:02:57;5.95;;;1.20;;
61038;SDS011;46919;45.816;3.104;2023-03-14T09:05:22;5.80;;;1.23;;
61038;SDS011;46919;45.816;3.104;2023-03-14T09:07:48;8.70;;;1.38;;
61038;SDS011;46919;45.816;3.104;2023-03-14T09:10:13;4.38;;;1.23;;
61038;SDS011;46919;45.816;3.104;2023-03-14T09:12:38;6.70;;;1.40;;
61038;SDS011;46919;45.816;3.104;2023-03-14T09:15:04;8.73;;;1.35;;
61038;SDS011;46919;45.816;3.104;2023-03-14T09:17:30;8.45;;;1.35;;
61038;SDS011;46919;45.816;3.104;2023-03-14T09:19:55;7.35;;;1.30;;
61038;SDS011;46919;45.816;3.104;2023-03-14T09:22:21;10.45;;;1.52;;
61038;SDS011;46919;45.816;3.104;2023-03-14T09:24:46;9.65;;;1.40;;
61038;SDS011;46919;45.816;3.104;2023-03-14T09:27:12;10.80;;;1.50;;
61038;SDS011;46919;45.816;3.104;2023-03-14T09:29:37;10.93;;;1.67;;
61038;SDS011;46919;45.816;3.104;2023-03-14T09:32:03;5.70;;;1.10;;
61038;SDS011;46919;45.816;3.104;2023-03-14T09:34:29;6.22;;;1.05;;
61038;SDS011;46919;45.816;3.104;2023-03-14T09:36:54;4.07;;;0.98;;
61038;SDS011;46919;45.816;3.104;2023-03-14T09:39:20;5.03;;;1.30;;
61038;SDS011;46919;45.816;3.104;2023-03-14T09:41:46;10.43;;;2.30;;
61038;SDS011;46919;45.816;3.104;2023-03-14T09:47:03;4.22;;;1.13;;
61038;SDS011;46919;45.816;3.104;2023-03-14T09:49:32;5.68;;;1.10;;
61038;SDS011;46919;45.816;3.104;2023-03-14T09:52:02;4.60;;;0.85;;
61038;SDS011;46919;45.816;3.104;2023-03-14T09:54:47;3.03;;;0.88;;
61038;SDS011;46919;45.816;3.104;2023-03-14T09:57:17;5.23;;;2.20;;
61038;SDS011;46919;45.816;3.104;2023-03-14T09:59:44;5.63;;;1.10;;
61038;SDS011;46919;45.816;3.104;2023-03-14T10:02:16;6.50;;;2.15;;
61038;SDS011;46919;45.816;3.104;2023-03-14T10:04:50;7.28;;;1.23;;
61038;SDS011;46919;45.816;3.104;2023-03-14T10:07:19;5.82;;;1.02;;
61038;SDS011;46919;45.816;3.104;2023-03-14T10:09:56;5.35;;;0.95;;
61038;SDS011;46919;45.816;3.104;2023-03-14T10:12:32;4.30;;;1.00;;
61038;SDS011;46919;45.816;3.104;2023-03-14T10:15:02;7.82;;;2.13;;
61038;SDS011;46919;45.816;3.104;2023-03-14T10:17:39;5.10;;;1.10;;
61038;SDS011;46919;45.816;3.104;2023-03-14T10:23:05;8.80;;;1.25;;
61038;SDS011;46919;45.816;3.104;2023-03-14T10:25:45;5.45;;;1.10;;
61038;SDS011;46919;45.816;3.104;2023-03-14T10:28:24;5.80;;;1.27;;
61038;SDS011;46919;45.816;3.104;2023-03-14T10:30:50;4.35;;;0.73;;
61038;SDS011;46919;45.816;3.104;2023-03-14T10:33:23;1.73;;;0.70;;
61038;SDS011;46919;45.816;3.104;2023-03-14T10:35:58;2.15;;;0.52;;
61038;SDS011;46919;45.816;3.104;2023-03-14T10:38:27;2.97;;;0.90;;
61038;SDS011;46919;45.816;3.104;2023-03-14T10:40:57;3.50;;;0.65;;
61038;SDS011;46919;45.816;3.104;2023-03-14T10:43:34;4.35;;;0.80;;
61038;SDS011;46919;45.816;3.104;2023-03-14T10:48:33;4.32;;;0.90;;
61038;SDS011;46919;45.816;3.104;2023-03-14T10:53:34;5.05;;;1.00;;
61038;SDS011;46919;45.816;3.104;2023-03-14T10:58:30;3.97;;;0.90;;
61038;SDS011;46919;45.816;3.104;2023-03-14T11:01:46;5.82;;;1.25;;
61038;SDS011;46919;45.816;3.104;2023-03-14T11:04:13;4.60;;;1.30;;
61038;SDS011;46919;45.816;3.104;2023-03-14T11:07:35;3.50;;;0.90;;
61038;SDS011;46919;45.816;3.104;2023-03-14T11:15:30;2.67;;;0.82;;
61038;SDS011;46919;45.816;3.104;2023-03-14T11:18:31;5.85;;;0.80;;
61038;SDS011;46919;45.816;3.104;2023-03-14T11:21:44;5.90;;;1.33;;
61038;SDS011;46919;45.816;3.104;2023-03-14T11:31:46;6.25;;;1.00;;
61038;SDS011;46919;45.816;3.104;2023-03-14T11:34:28;4.10;;;1.10;;
61038;SDS011;46919;45.816;3.104;2023-03-14T11:42:35;3.83;;;0.98;;
61038;SDS011;46919;45.816;3.104;2023-03-14T11:45:02;7.78;;;1.23;;
61038;SDS011;46919;45.816;3.104;2023-03-14T11:47:37;5.60;;;0.90;;
61038;SDS011;46919;45.816;3.104;2023-03-14T11:50:18;6.30;;;1.30;;
61038;SDS011;46919;45.816;3.104;2023-03-14T11:52:50;4.68;;;1.00;;
61038;SDS011;46919;45.816;3.104;2023-03-14T11:55:31;3.83;;;0.90;;
61038;SDS011;46919;45.816;3.104;2023-03-14T11:58:15;3.55;;;1.05;;
61038;SDS011;46919;45.816;3.104;2023-03-14T12:00:47;4.40;;;1.38;;
61038;SDS011;46919;45.816;3.104;2023-03-14T12:13:50;3.05;;;0.77;;
61038;SDS011;46919;45.816;3.104;2023-03-14T12:18:49;4.30;;;0.70;;
61038;SDS011;46919;45.816;3.104;2023-03-14T12:21:16;6.47;;;1.20;;
61038;SDS011;46919;45.816;3.104;2023-03-14T12:23:48;4.07;;;1.10;;
61038;SDS011;46919;45.816;3.104;2023-03-14T12:26:17;4.15;;;0.98;;
61038;SDS011;46919;45.816;3.104;2023-03-14T12:28:51;3.88;;;1.00;;
61038;SDS011;46919;45.816;3.104;2023-03-14T12:46:58;6.30;;;1.10;;
61038;SDS011;46919;45.816;3.104;2023-03-14T12:49:42;4.10;;;1.20;;
61038;SDS011;46919;45.816;3.104;2023-03-14T12:52:14;3.35;;;1.13;;
61038;SDS011;46919;45.816;3.104;2023-03-14T12:54:46;3.63;;;0.82;;
61038;SDS011;46919;45.816;3.104;2023-03-14T12:57:15;5.53;;;1.00;;
61038;SDS011;46919;45.816;3.104;2023-03-14T13:00:21;4.95;;;0.90;;
61038;SDS011;46919;45.816;3.104;2023-03-14T13:02:49;3.38;;;1.23;;
61038;SDS011;46919;45.816;3.104;2023-03-14T13:12:38;5.43;;;1.00;;
61038;SDS011;46919;45.816;3.104;2023-03-14T13:15:14;4.88;;;1.20;;
61038;SDS011;46919;45.816;3.104;2023-03-14T13:17:43;7.15;;;1.23;;
61038;SDS011;46919;45.816;3.104;2023-03-14T13:20:26;6.10;;;1.40;;
61038;SDS011;46919;45.816;3.104;2023-03-14T13:23:23;2.30;;;1.00;;
61038;SDS011;46919;45.816;3.104;2023-03-14T13:25:59;5.00;;;1.02;;
61038;SDS011;46919;45.816;3.104;2023-03-14T13:28:25;5.80;;;1.83;;
61038;SDS011;46919;45.816;3.104;2023-03-14T13:30:57;5.80;;;1.33;;
61038;SDS011;46919;45.816;3.104;2023-03-14T13:33:24;3.70;;;0.90;;
61038;SDS011;46919;45.816;3.104;2023-03-14T13:36:03;3.60;;;1.20;;
61038;SDS011;46919;45.816;3.104;2023-03-14T13:38:31;3.30;;;0.88;;
61038;SDS011;46919;45.816;3.104;2023-03-14T13:41:00;7.47;;;1.35;;
61038;SDS011;46919;45.816;3.104;2023-03-14T13:43:33;3.35;;;1.10;;
61038;SDS011;46919;45.816;3.104;2023-03-14T13:48:27;4.55;;;1.30;;
61038;SDS011;46919;45.816;3.104;2023-03-14T13:51:02;4.55;;;1.55;;
61038;SDS011;46919;45.816;3.104;2023-03-14T13:53:30;5.60;;;0.95;;
61038;SDS011;46919;45.816;3.104;2023-03-14T13:55:57;2.90;;;1.15;;
61038;SDS011;46919;45.816;3.104;2023-03-14T13:58:28;3.80;;;1.20;;
61038;SDS011;46919;45.816;3.104;2023-03-14T14:03:29;6.40;;;1.20;;
61038;SDS011;46919;45.816;3.104;2023-03-14T14:05:57;4.90;;;1.10;;
61038;SDS011;46919;45.816;3.104;2023-03-14T14:08:23;4.22;;;1.50;;
61038;SDS011;46919;45.816;3.104;2023-03-14T14:10:50;3.45;;;0.90;;
61038;SDS011;46919;45.816;3.104;2023-03-14T14:13:22;4.05;;;1.27;;
61038;SDS011;46919;45.816;3.104;2023-03-14T14:15:50;4.05;;;0.68;;
61038;SDS011;46919;45.816;3.104;2023-03-14T14:18:18;5.03;;;1.20;;
61038;SDS011;46919;45.816;3.104;2023-03-14T14:20:47;6.75;;;1.50;;
61038;SDS011;46919;45.816;3.104;2023-03-14T14:25:38;4.15;;;1.25;;
61038;SDS011;46919;45.816;3.104;2023-03-14T14:28:14;4.55;;;0.98;;
61038;SDS011;46919;45.816;3.104;2023-03-14T14:30:42;8.27;;;1.30;;
61038;SDS011;46919;45.816;3.104;2023-03-14T14:38:24;4.63;;;1.10;;
61038;SDS011;46919;45.816;3.104;2023-03-14T14:40:51;2.50;;;1.05;;
61038;SDS011;46919;45.816;3.104;2023-03-14T14:43:22;4.32;;;0.60;;
61038;SDS011;46919;45.816;3.104;2023-03-14T14:45:50;2.92;;;0.60;;
61038;SDS011;46919;45.816;3.104;2023-03-14T14:48:19;1.73;;;0.50;;
61038;SDS011;46919;45.816;3.104;2023-03-14T14:50:49;3.22;;;0.60;;
61038;SDS011;46919;45.816;3.104;2023-03-14T14:58:44;2.60;;;0.60;;
61038;SDS011;46919;45.816;3.104;2023-03-14T15:01:12;3.20;;;0.90;;
61038;SDS011;46919;45.816;3.104;2023-03-14T15:03:42;3.55;;;0.90;;
61038;SDS011;46919;45.816;3.104;2023-03-14T15:06:10;5.15;;;1.10;;
61038;SDS011;46919;45.816;3.104;2023-03-14T15:08:37;4.20;;;0.90;;
61038;SDS011;46919;45.816;3.104;2023-03-14T15:11:03;2.67;;;0.65;;
61038;SDS011;46919;45.816;3.104;2023-03-14T15:13:29;2.58;;;0.95;;
61038;SDS011;46919;45.816;3.104;2023-03-14T15:15:55;3.58;;;0.90;;
61038;SDS011;46919;45.816;3.104;2023-03-14T15:18:21;3.80;;;0.70;;
61038;SDS011;46919;45.816;3.104;2023-03-14T15:20:49;2.58;;;0.70;;
61038;SDS011;46919;45.816;3.104;2023-03-14T15:23:16;5.18;;;0.55;;
61038;SDS011;46919;45.816;3.104;2023-03-14T15:25:43;3.42;;;0.50;;
61038;SDS011;46919;45.816;3.104;2023-03-14T15:28:14;3.08;;;0.60;;
61038;SDS011;46919;45.816;3.104;2023-03-14T15:30:43;2.35;;;0.60;;
61038;SDS011;46919;45.816;3.104;2023-03-14T15:33:08;4.93;;;0.80;;
61038;SDS011;46919;45.816;3.104;2023-03-14T15:35:35;2.00;;;0.52;;
61038;SDS011;46919;45.816;3.104;2023-03-14T15:38:02;2.55;;;0.75;;
61038;SDS011;46919;45.816;3.104;2023-03-14T15:40:28;2.88;;;0.60;;
61038;SDS011;46919;45.816;3.104;2023-03-14T15:42:53;3.00;;;0.60;;
61038;SDS011;46919;45.816;3.104;2023-03-14T15:45:19;2.33;;;0.57;;
61038;SDS011;46919;45.816;3.104;2023-03-14T15:47:44;3.67;;;0.75;;
61038;SDS011;46919;45.816;3.104;2023-03-14T15:50:10;4.70;;;0.80;;
61038;SDS011;46919;45.816;3.104;2023-03-14T15:52:36;2.72;;;0.60;;
61038;SDS011;46919;45.816;3.104;2023-03-14T15:55:01;3.33;;;0.70;;
61038;SDS011;46919;45.816;3.104;2023-03-14T15:57:27;3.70;;;0.55;;
61038;SDS011;46919;45.816;3.104;2023-03-14T15:59:53;2.05;;;0.50;;
61038;SDS011;46919;45.816;3.104;2023-03-14T16:02:18;2.95;;;0.80;;
61038;SDS011;46919;45.816;3.104;2023-03-14T16:04:43;2.40;;;0.45;;
61038;SDS011;46919;45.816;3.104;2023-03-14T16:07:09;4.15;;;0.70;;
61038;SDS011;46919;45.816;3.104;2023-03-14T16:09:34;2.53;;;0.60;;
61038;SDS011;46919;45.816;3.104;2023-03-14T16:12:00;4.03;;;0.50;;
61038;SDS011;46919;45.816;3.104;2023-03-14T16:14:26;3.30;;;0.80;;
61038;SDS011;46919;45.816;3.104;2023-03-14T16:16:52;3.78;;;1.30;;
61038;SDS011;46919;45.816;3.104;2023-03-14T16:19:18;2.20;;;0.75;;
61038;SDS011;46919;45.816;3.104;2023-03-14T16:21:43;3.38;;;0.95;;
61038;SDS011;46919;45.816;3.104;2023-03-14T16:24:09;3.15;;;1.10;;